Detall de PIREP

Printer-friendly versionPDF version

[2010/01/30 07:55:00]
Flight IATA:CT2110
Pilot Number:041
Company ICAO:CAT
Aircraft Type:F50/A
PAX:30
Departing Airport: LEVC
Destination Airport: LEST
Alternate Airport:LECO
Online: VATSIM
Route:CENTA2A A33 PRADO A33 CJN A33 HORTA A33 MAGIN A33 INDEG A33 DISKO A33 ZMR A33 BARKO1G
Flight Level:FL190
No Slew and time accel
No pause
Crash detect
Detect pilot in Cockpit between each 30 and 45 minutes
07:55 Zero fuel Weight: 35102 Lbs, Fuel Weight: 4977 Lbs
07:55 VATSIM:LEVC 300730Z 25012KT 9999 FEW025 09/01 Q1004 NOSIG
07:55 VATSIM:LEST 300730Z 27003KT 230V330 8000 SCT010 SCT045 05/05 Q1012 NOSIG
07:56 VOICE CATALONIAN
07:57 Parking Brakes off
08:08 Take-off
08:08 Take off Weight: 39947 Lbs
08:08 Wind: 253º @ 011 Knots Heading: 292º
08:08 POS N39º 29´ 23´´ W000º 28´ 59´´
08:08 Gear Up: 131 Knots
08:08 Flaps:1 at 131 Knots
08:09 Flaps:0 at 154 Knots
08:23 Wind:323º@
032 Knots Heading: 302º Ground Speed: 180 Knots Altitude 10390 ft
08:29 TOC
08:29 Fuel Weight: 4092 Lb
08:38 Wind:332º@065 Knots Heading: 306º Ground Speed: 209 Knots Altitude 18812 ft
08:53 Wind:332º@065 Knots Heading: 305º Ground Speed: 203 Knots Altitude 18828 ft
09:08 Wind:340º@065 Knots Heading: 306º Ground Speed: 209 Knots Altitude 18832 ft
09:23 Wind:329º@053 Knots Heading: 301º Ground Speed: 213 Knots Altitude 18858 ft
09:27 TOD
09:27 Fuel Weight: 2443 Lb
09:38 Wind:331º@016 Knots Heading: 306º Ground Speed: 208 Knots Altitude 9727 ft
09:53 Wind:331º@016 Knots Heading: 280º Ground Speed: 230 Knots Altitude 8920 ft
10:07 Flaps:1 at 162 Knots
10:08 Wind:356º@002 Knots Heading: 345º Ground Speed: 156 Knots Altitude 4511 ft
10:08 Flaps:2 at 145 Knots
10:08 Gear Down: 134 Knots
10:08 Flaps:3 at 126 Knots
10:09 Flaps:4 at 112 Knots
10:09 Flaps:5 at 116 Knots

10:10 Flaps:6 at 112 Knots
10:14 TouchDown:Rate -153 ft/min Speed: 93 Knots
10:14 VATSIM:LEST 301000Z 25006KT 220V290 8000 VCFG FEW003 SCT007 07/07 Q1013 NOSIG
10:14 Land
10:14 Wind:076º@001 Knots
10:14 Heading: 348º
10:14 Flight Duration: 02:06
10:14 Landing Weight: 36362 Lbs
10:14 POS N42º 53´ 36´´ W008º 24´ 50´´
10:16 Parking brakes on
10:16 Block to Block Duration: 02:19
10:16 Final Fuel: 1243 Lbls
10:16 Spent Fuel: 3734 Lbls
10:16 Flight Length: 431 NM
10:16 TOD Land Length: 161 NM

Exportar CSV

Powered by Drupal - Modified by Danger4k